createdAt,value
2022-08-08T13:04:24.961Z,79.30
2022-08-08T13:07:02.975Z,79.79
2022-08-08T13:10:04.369Z,79.96
2022-08-08T13:12:46.651Z,79.25
2022-08-08T13:15:19.596Z,78.47
2022-08-08T13:17:53.907Z,78.14
2022-08-08T13:20:49.255Z,78.69
2022-08-08T13:23:31.394Z,79.02
2022-08-08T13:26:14.728Z,78.95
2022-08-08T13:28:48.860Z,78.95
2022-08-08T13:31:19.707Z,78.73
2022-08-08T13:33:54.433Z,79.30
2022-08-08T13:36:26.116Z,79.15
2022-08-08T13:39:00.374Z,79.19
2022-08-08T13:41:37.882Z,79.83
2022-08-08T13:44:19.623Z,79.04
2022-08-08T13:47:03.687Z,78.76
2022-08-08T13:50:34.686Z,78.56
2022-08-08T13:52:37.879Z,78.14
2022-08-08T13:55:09.263Z,77.67
2022-08-08T13:58:07.785Z,77.32
2022-08-08T14:00:45.244Z,76.25
2022-08-08T14:03:52.462Z,76.29
2022-08-08T14:06:33.144Z,75.85
2022-08-08T14:09:24.797Z,75.45
2022-08-08T14:11:55.117Z,75.17
2022-08-08T14:14:26.344Z,74.67
2022-08-08T14:17:00.600Z,74.70
2022-08-08T14:19:57.348Z,74.81
2022-08-08T14:22:30.169Z,74.99
2022-08-08T14:25:07.728Z,74.63
2022-08-08T14:27:59.670Z,74.78
2022-08-08T14:30:37.190Z,74.88
2022-08-08T14:33:12.901Z,74.69
2022-08-08T14:35:49.645Z,74.88
2022-08-08T14:38:51.547Z,75.08
2022-08-08T14:41:54.091Z,75.14
2022-08-08T14:44:21.174Z,75.15
2022-08-08T14:47:02.281Z,75.57
2022-08-08T14:50:02.559Z,75.05
2022-08-08T14:52:29.167Z,75.79
2022-08-08T14:54:59.409Z,75.08
2022-08-08T14:58:02.520Z,75.37
2022-08-08T15:00:19.724Z,75.74
2022-08-08T15:02:58.539Z,75.61
2022-08-08T15:05:52.728Z,75.23
2022-08-08T15:08:35.592Z,75.46
2022-08-08T15:11:20.483Z,75.80
2022-08-08T15:14:03.086Z,75.31
2022-08-08T15:16:34.520Z,75.37
2022-08-08T15:19:05.118Z,75.29
2022-08-08T15:21:42.408Z,75.08
2022-08-08T15:24:16.009Z,75.05
2022-08-08T15:26:52.227Z,75.11
2022-08-08T15:29:25.543Z,75.05
2022-08-08T15:32:17.569Z,74.54
2022-08-08T15:34:47.045Z,74.87
2022-08-08T15:37:19.223Z,74.62
2022-08-08T15:39:49.817Z,74.67
2022-08-08T15:42:32.182Z,74.29
2022-08-08T15:45:04.184Z,74.13
2022-08-08T15:47:34.661Z,74.81
2022-08-08T15:50:04.672Z,74.70
2022-08-08T15:52:39.343Z,74.54
2022-08-08T15:55:12.815Z,74.33
2022-08-08T15:57:43.177Z,74.39
2022-08-08T16:00:27.485Z,74.66
2022-08-08T16:02:59.643Z,74.41
2022-08-08T16:05:35.224Z,74.68
2022-08-08T16:08:12.283Z,74.57
2022-08-08T16:13:28.722Z,75.05
2022-08-08T16:13:44.993Z,74.93
2022-08-08T16:16:17.882Z,75.06
2022-08-08T16:18:56.805Z,75.27
2022-08-08T16:21:31.665Z,75.30
2022-08-08T16:24:04.507Z,75.48
2022-08-08T16:26:36.939Z,75.72
2022-08-08T16:29:16.322Z,75.72
2022-08-08T16:31:49.638Z,75.47
2022-08-08T16:34:24.872Z,75.55
2022-08-08T16:36:55.440Z,75.89
2022-08-08T16:39:59.943Z,76.13
2022-08-08T16:42:18.434Z,75.94
2022-08-08T16:44:55.080Z,76.43
2022-08-08T16:47:39.815Z,76.33
2022-08-08T16:50:16.087Z,76.41
2022-08-08T16:55:05.804Z,76.57
2022-08-08T16:55:55.452Z,76.41
2022-08-08T16:58:34.412Z,76.51
2022-08-08T17:01:11.041Z,76.71
2022-08-08T17:04:00.994Z,76.40
2022-08-08T17:06:36.167Z,76.39
2022-08-08T17:09:15.236Z,76.82
2022-08-08T17:11:50.870Z,76.46
2022-08-08T17:14:33.086Z,76.97
2022-08-08T17:17:41.352Z,76.79
2022-08-08T17:19:59.806Z,76.74
2022-08-08T17:22:38.819Z,76.42
2022-08-08T17:25:12.432Z,76.64
2022-08-08T17:27:47.506Z,76.36
2022-08-08T17:30:27.385Z,76.39
2022-08-08T17:34:53.564Z,76.66
2022-08-08T17:35:56.173Z,76.32
2022-08-08T17:38:40.468Z,76.18
2022-08-08T17:41:12.260Z,76.28
2022-08-08T17:44:01.660Z,75.96
2022-08-08T17:46:42.857Z,76.33
2022-08-08T17:49:16.563Z,76.54
2022-08-08T17:51:55.692Z,76.44
2022-08-08T17:54:28.981Z,76.30
2022-08-08T17:56:59.605Z,76.39
2022-08-08T17:59:30.369Z,76.17
2022-08-08T18:02:16.085Z,76.54
2022-08-08T18:04:49.462Z,76.33
2022-08-08T18:08:04.064Z,76.85
2022-08-08T18:10:11.864Z,76.39
2022-08-08T18:12:44.389Z,76.57
2022-08-08T18:15:17.147Z,76.52
2022-08-08T18:18:04.959Z,76.28
2022-08-08T18:20:54.546Z,76.67
2022-08-08T18:23:25.418Z,76.19
2022-08-08T18:25:55.547Z,76.24
2022-08-08T18:28:34.865Z,76.40
2022-08-08T18:31:22.296Z,75.94
2022-08-08T18:34:25.214Z,76.06
2022-08-08T18:36:44.619Z,76.19
2022-08-08T18:39:16.431Z,75.67
2022-08-08T18:42:02.978Z,76.29
2022-08-08T18:44:36.072Z,75.90
2022-08-08T18:47:06.974Z,75.77
2022-08-08T18:49:54.732Z,75.71
2022-08-08T18:52:28.111Z,75.79
2022-08-08T18:55:10.209Z,76.08
2022-08-08T18:57:44.787Z,75.98
2022-08-08T19:00:21.555Z,75.81
2022-08-08T19:02:55.732Z,76.00
2022-08-08T19:05:34.437Z,76.33
2022-08-08T19:08:24.752Z,76.07
2022-08-08T19:11:01.701Z,75.96
2022-08-08T19:13:52.494Z,76.36
2022-08-08T19:16:31.806Z,76.03
2022-08-08T19:19:03.845Z,76.40
2022-08-08T19:21:49.476Z,75.93
2022-08-08T19:24:40.631Z,75.98
2022-08-08T19:27:12.108Z,75.92
2022-08-08T19:29:46.232Z,76.29
2022-08-08T19:32:22.876Z,76.22
2022-08-08T19:34:55.068Z,75.90
2022-08-08T19:37:43.421Z,76.05
2022-08-08T19:40:16.618Z,75.78
2022-08-08T19:42:51.529Z,75.93
2022-08-08T19:45:58.305Z,75.84
2022-08-08T19:48:28.984Z,76.22
2022-08-08T19:51:02.128Z,76.02
2022-08-08T19:53:53.328Z,76.21
2022-08-08T19:56:25.879Z,76.30
2022-08-08T19:59:12.442Z,76.20
2022-08-08T20:02:02.216Z,76.25
2022-08-08T20:04:34.362Z,76.36
2022-08-08T20:08:39.459Z,76.28
2022-08-08T20:09:57.176Z,76.45
2022-08-08T20:12:32.389Z,75.97
2022-08-08T20:15:16.760Z,76.10
2022-08-08T20:17:49.806Z,76.05
2022-08-08T20:20:22.218Z,75.86
2022-08-08T20:22:56.303Z,76.22
2022-08-08T20:25:29.780Z,75.96
2022-08-08T20:28:07.093Z,75.97
2022-08-08T20:30:56.072Z,76.05
2022-08-08T20:34:27.359Z,75.92
2022-08-08T20:36:22.160Z,76.19
2022-08-08T20:38:53.119Z,76.14
2022-08-08T20:41:23.209Z,76.30
2022-08-08T20:43:54.313Z,76.20
2022-08-08T20:46:29.408Z,75.88
2022-08-08T20:48:59.895Z,76.07
2022-08-08T20:51:31.607Z,76.14
2022-08-08T20:54:13.887Z,76.19
2022-08-08T20:57:04.710Z,76.22
2022-08-08T20:59:41.631Z,76.29
2022-08-08T21:02:12.745Z,76.29
2022-08-08T21:04:50.269Z,76.33
2022-08-08T21:07:47.164Z,76.29
2022-08-08T21:10:13.115Z,76.41
2022-08-08T21:12:44.532Z,76.76
2022-08-08T21:16:04.119Z,76.75
2022-08-08T21:18:07.054Z,76.70
2022-08-08T21:20:37.764Z,76.54
2022-08-08T21:23:09.926Z,76.69
2022-08-08T21:25:43.732Z,76.72
2022-08-08T21:28:15.612Z,76.80
2022-08-08T21:30:49.621Z,76.67
2022-08-08T21:33:22.800Z,76.81
2022-08-08T21:36:17.271Z,76.58
2022-08-08T21:38:43.706Z,76.67
2022-08-08T21:41:28.753Z,76.84
2022-08-08T21:44:06.117Z,76.76
2022-08-08T21:48:01.948Z,76.86
2022-08-08T21:49:26.948Z,76.69
2022-08-08T21:54:23.406Z,77.01
2022-08-08T21:55:01.847Z,76.79
2022-08-08T21:57:42.029Z,77.26
2022-08-08T22:00:14.975Z,76.89
2022-08-08T22:02:56.126Z,77.09
2022-08-08T22:05:26.456Z,77.26
2022-08-08T22:08:00.334Z,76.85
2022-08-08T22:10:32.616Z,77.13
2022-08-08T22:13:19.020Z,77.09
2022-08-08T22:15:59.238Z,77.40
2022-08-08T22:18:33.308Z,76.79
2022-08-08T22:21:14.216Z,77.05
2022-08-08T22:23:53.754Z,77.00
2022-08-08T22:26:29.598Z,76.83
2022-08-08T22:29:57.263Z,77.18
2022-08-08T22:31:58.112Z,77.44
2022-08-08T22:34:39.579Z,77.28
2022-08-08T22:37:14.802Z,76.99
2022-08-08T22:40:00.832Z,77.32
2022-08-08T22:42:34.324Z,77.10
2022-08-08T22:45:12.983Z,77.26
2022-08-08T22:47:49.493Z,77.31
2022-08-08T22:50:27.022Z,77.26
2022-08-08T22:54:32.566Z,77.02
